Time,TemperatureF,DewpointF,PressureIn,WindDirection,WindDirectionDegrees,WindSpeedMPH,WindSpeedGustMPH,Humidity,HourlyPrecipIn,Conditions,Clouds,dailyrainin,SoftwareType,DateUTC
2013-03-17 00:00:00,14.3,11.3,29.95,SSE,157,0.0,-999.0,87,0.00,,,0.00,MetarLogicWeatherSta,2013-03-17 04:00:00,
2013-03-17 00:05:00,14.3,11.6,29.95,SSE,157,0.0,-999.0,89,0.00,,,0.00,MetarLogicWeatherSta,2013-03-17 04:05:00,
2013-03-17 00:10:00,14.4,11.6,29.95,SSE,157,0.0,-999.0,88,0.00,,,0.00,MetarLogicWeatherSta,2013-03-17 04:10:00,
2013-03-17 00:15:00,14.5,11.7,29.95,SSE,157,0.0,-999.0,88,0.00,,,0.00,MetarLogicWeatherSta,2013-03-17 04:15:00,
2013-03-17 00:20:00,14.6,11.9,29.96,SSE,157,0.0,-999.0,88,0.00,,,0.00,MetarLogicWeatherSta,2013-03-17 04:20:00,
2013-03-17 00:25:00,14.7,12.0,29.96,SSE,157,0.0,-999.0,88,0.00,,,0.00,MetarLogicWeatherSta,2013-03-17 04:25:00,
2013-03-17 00:30:00,14.8,11.9,29.96,SSE,157,0.0,-999.0,88,0.00,,,0.00,MetarLogicWeatherSta,2013-03-17 04:30:00,
2013-03-17 00:35:00,14.8,12.1,29.96,SSE,157,0.0,-999.0,88,0.00,,,0.00,MetarLogicWeatherSta,2013-03-17 04:35:00,
2013-03-17 00:40:00,14.8,12.2,29.96,SSE,157,0.0,-999.0,89,0.00,,,0.00,MetarLogicWeatherSta,2013-03-17 04:40:00,
2013-03-17 00:45:00,15.0,12.3,29.96,SSE,157,0.0,-999.0,89,0.00,,,0.00,MetarLogicWeatherSta,2013-03-17 04:45:00,
2013-03-17 00:50:00,14.8,12.0,29.96,SSE,157,0.0,-999.0,88,0.00,,,0.00,MetarLogicWeatherSta,2013-03-17 04:50:00,
2013-03-17 00:55:00,14.7,12.1,29.96,SSE,157,0.0,-999.0,89,0.00,,,0.00,MetarLogicWeatherSta,2013-03-17 04:55:00,
2013-03-17 01:00:00,14.8,12.4,29.96,SSE,157,0.0,-999.0,89,0.00,,,0.00,MetarLogicWeatherSta,2013-03-17 05:00:00,
2013-03-17 01:05:00,15.0,12.5,29.96,SSE,157,0.0,-999.0,89,0.00,,,0.00,MetarLogicWeatherSta,2013-03-17 05:05:00,
2013-03-17 01:10:00,15.0,12.4,29.96,SSE,157,0.0,-999.0,89,0.00,,,0.00,MetarLogicWeatherSta,2013-03-17 05:10:00,
2013-03-17 01:15:00,15.2,12.7,29.96,SSE,157,0.0,-999.0,89,0.00,,,0.00,MetarLogicWeatherSta,2013-03-17 05:15:00,
2013-03-17 01:20:00,15.4,13.1,29.96,SSE,157,0.0,-999.0,90,0.00,,,0.00,MetarLogicWeatherSta,2013-03-17 05:20:00,
2013-03-17 01:25:00,15.2,12.7,29.96,SSE,157,0.0,-999.0,89,0.00,,,0.00,MetarLogicWeatherSta,2013-03-17 05:25:00,
2013-03-17 01:30:00,15.1,12.7,29.97,SSE,157,0.0,-999.0,90,0.00,,,0.00,MetarLogicWeatherSta,2013-03-17 05:30:00,
2013-03-17 01:35:00,15.5,13.4,29.98,South,180,0.0,-999.0,91,0.00,,,0.00,MetarLogicWeatherSta,2013-03-17 05:35:00,
2013-03-17 01:40:00,15.9,13.9,29.98,SSE,157,0.0,-999.0,91,0.00,,,0.00,MetarLogicWeatherSta,2013-03-17 05:40:00,
2013-03-17 01:45:00,16.8,14.8,29.98,SSE,157,0.0,-999.0,91,0.00,,,0.00,MetarLogicWeatherSta,2013-03-17 05:45:00,
2013-03-17 01:50:00,17.3,15.4,29.99,SSE,157,0.0,-999.0,92,0.00,,,0.00,MetarLogicWeatherSta,2013-03-17 05:50:00,
2013-03-17 01:55:00,17.5,15.4,29.99,SSE,157,0.0,-999.0,91,0.00,,,0.00,MetarLogicWeatherSta,2013-03-17 05:55:00,
2013-03-17 02:00:00,17.8,15.6,30.00,SSE,157,0.0,-999.0,91,0.00,,,0.00,MetarLogicWeatherSta,2013-03-17 06:00:00,
2013-03-17 02:05:00,17.7,15.5,30.00,South,180,0.0,-999.0,91,0.00,,,0.00,MetarLogicWeatherSta,2013-03-17 06:05:00,
2013-03-17 02:10:00,17.9,15.6,30.01,SSE,157,0.0,-999.0,90,0.00,,,0.00,MetarLogicWeatherSta,2013-03-17 06:10:00,
2013-03-17 02:15:00,17.8,15.4,30.00,South,180,0.0,-999.0,90,0.00,,,0.00,MetarLogicWeatherSta,2013-03-17 06:15:00,
2013-03-17 02:20:00,18.0,15.6,30.00,SSE,157,0.0,-999.0,90,0.00,,,0.00,MetarLogicWeatherSta,2013-03-17 06:20:00,
2013-03-17 02:25:00,17.9,15.4,30.01,SSE,157,0.0,-999.0,90,0.00,,,0.00,MetarLogicWeatherSta,2013-03-17 06:25:00,
2013-03-17 02:30:00,17.8,15.2,30.00,SSE,157,0.0,-999.0,89,0.00,,,0.00,MetarLogicWeatherSta,2013-03-17 06:30:00,
2013-03-17 02:35:00,17.8,15.3,30.00,SSE,157,0.0,-999.0,89,0.00,,,0.00,MetarLogicWeatherSta,2013-03-17 06:35:00,
2013-03-17 02:40:00,17.8,15.3,30.00,SSE,157,0.0,-999.0,90,0.00,,,0.00,MetarLogicWeatherSta,2013-03-17 06:40:00,
2013-03-17 02:45:00,17.9,15.2,30.00,SSE,157,0.0,-999.0,89,0.00,,,0.00,MetarLogicWeatherSta,2013-03-17 06:45:00,
2013-03-17 02:50:00,17.7,15.1,29.99,SSE,157,0.0,-999.0,89,0.00,,,0.00,MetarLogicWeatherSta,2013-03-17 06:50:00,
2013-03-17 02:55:00,17.5,14.7,29.99,SSE,157,0.0,-999.0,88,0.00,,,0.00,MetarLogicWeatherSta,2013-03-17 06:55:00,
2013-03-17 03:00:00,17.3,14.4,29.99,SSE,157,0.0,-999.0,88,0.00,,,0.00,MetarLogicWeatherSta,2013-03-17 07:00:00,
2013-03-17 03:05:00,16.8,14.0,29.99,SSE,157,0.0,-999.0,88,0.00,,,0.00,MetarLogicWeatherSta,2013-03-17 07:05:00,
2013-03-17 03:10:00,16.7,13.5,29.99,SSE,157,0.0,-999.0,87,0.00,,,0.00,MetarLogicWeatherSta,2013-03-17 07:10:00,
2013-03-17 03:15:00,16.5,13.6,29.99,SSE,157,0.0,-999.0,87,0.00,,,0.00,MetarLogicWeatherSta,2013-03-17 07:15:00,
2013-03-17 03:20:00,16.0,13.1,29.99,SSE,157,0.0,-999.0,88,0.00,,,0.00,MetarLogicWeatherSta,2013-03-17 07:20:00,
2013-03-17 03:25:00,16.0,13.1,29.99,SSE,157,0.0,-999.0,88,0.00,,,0.00,MetarLogicWeatherSta,2013-03-17 07:25:00,
2013-03-17 03:30:00,15.6,12.7,30.00,SSE,157,0.0,-999.0,88,0.00,,,0.00,MetarLogicWeatherSta,2013-03-17 07:30:00,
2013-03-17 03:35:00,15.2,12.3,30.00,SSE,157,0.0,-999.0,88,0.00,,,0.00,MetarLogicWeatherSta,2013-03-17 07:35:00,
2013-03-17 03:40:00,15.3,12.5,30.00,SSE,157,0.0,-999.0,88,0.00,,,0.00,MetarLogicWeatherSta,2013-03-17 07:40:00,
2013-03-17 03:45:00,15.2,12.6,30.01,SSE,157,0.0,-999.0,89,0.00,,,0.00,MetarLogicWeatherSta,2013-03-17 07:45:00,
2013-03-17 03:50:00,15.2,12.6,30.00,SSE,157,0.0,-999.0,89,0.00,,,0.00,MetarLogicWeatherSta,2013-03-17 07:50:00,
2013-03-17 03:55:00,15.6,13.1,30.01,SSE,157,0.0,-999.0,89,0.00,,,0.00,MetarLogicWeatherSta,2013-03-17 07:55:00,
2013-03-17 04:00:00,15.7,13.0,30.01,SSE,157,0.0,-999.0,88,0.00,,,0.00,MetarLogicWeatherSta,2013-03-17 08:00:00,
2013-03-17 04:05:00,16.2,13.7,30.01,SSE,157,0.0,-999.0,89,0.00,,,0.00,MetarLogicWeatherSta,2013-03-17 08:05:00,
2013-03-17 04:11:00,16.3,14.0,30.01,SSE,157,0.0,-999.0,90,0.00,,,0.00,MetarLogicWeatherSta,2013-03-17 08:11:00,
2013-03-17 04:16:00,17.2,15.0,30.00,SSE,157,0.0,-999.0,90,0.00,,,0.00,MetarLogicWeatherSta,2013-03-17 08:16:00,
2013-03-17 04:21:00,17.7,15.4,30.01,SSE,157,0.0,-999.0,90,0.00,,,0.00,MetarLogicWeatherSta,2013-03-17 08:21:00,
2013-03-17 04:26:00,18.1,15.8,30.01,SSE,157,0.0,-999.0,90,0.00,,,0.00,MetarLogicWeatherSta,2013-03-17 08:26:00,
2013-03-17 04:31:00,18.3,16.0,30.01,SSE,157,0.0,-999.0,90,0.00,,,0.00,MetarLogicWeatherSta,2013-03-17 08:31:00,
2013-03-17 04:36:00,18.4,16.1,30.01,South,180,0.0,-999.0,90,0.00,,,0.00,MetarLogicWeatherSta,2013-03-17 08:36:00,
2013-03-17 04:42:00,18.8,16.5,30.01,South,180,0.0,-999.0,90,0.00,,,0.00,MetarLogicWeatherSta,2013-03-17 08:42:00,
2013-03-17 04:47:00,19.3,17.1,30.01,South,180,0.0,-999.0,91,0.00,,,0.00,MetarLogicWeatherSta,2013-03-17 08:47:00,
2013-03-17 04:52:00,19.8,17.7,30.02,South,180,0.0,-999.0,91,0.00,,,0.00,MetarLogicWeatherSta,2013-03-17 08:52:00,
2013-03-17 04:57:00,19.9,17.4,30.02,South,180,0.0,-999.0,89,0.00,,,0.00,MetarLogicWeatherSta,2013-03-17 08:57:00,
2013-03-17 05:02:00,20.3,18.0,30.02,South,180,0.0,-999.0,90,0.00,,,0.00,MetarLogicWeatherSta,2013-03-17 09:02:00,
2013-03-17 05:07:00,20.4,18.2,30.02,SSW,202,0.0,-999.0,90,0.00,,,0.00,MetarLogicWeatherSta,2013-03-17 09:07:00,
2013-03-17 05:12:00,20.6,18.4,30.03,South,180,0.0,-999.0,90,0.00,,,0.00,MetarLogicWeatherSta,2013-03-17 09:12:00,
2013-03-17 05:17:00,20.6,18.4,30.03,South,180,0.0,-999.0,91,0.00,,,0.00,MetarLogicWeatherSta,2013-03-17 09:17:00,
2013-03-17 05:22:00,20.9,18.7,30.03,South,180,0.0,-999.0,91,0.00,,,0.00,MetarLogicWeatherSta,2013-03-17 09:22:00,
2013-03-17 05:27:00,21.0,18.8,30.04,South,180,0.0,-999.0,91,0.00,,,0.00,MetarLogicWeatherSta,2013-03-17 09:27:00,
2013-03-17 05:32:00,21.1,18.9,30.04,South,180,0.0,-999.0,91,0.00,,,0.00,MetarLogicWeatherSta,2013-03-17 09:32:00,
2013-03-17 05:39:00,21.0,18.9,30.04,SSW,213,0.0,0.0,91,0.00,,,0.00,MetarLogicWeatherSta,2013-03-17 09:39:00,
2013-03-17 05:44:00,21.4,19.2,30.04,South,180,0.0,-999.0,91,0.00,,,0.00,MetarLogicWeatherSta,2013-03-17 09:44:00,
2013-03-17 05:49:00,20.9,18.6,30.05,South,180,0.0,-999.0,90,0.00,,,0.00,MetarLogicWeatherSta,2013-03-17 09:49:00,
2013-03-17 05:54:00,21.0,19.0,30.05,South,180,0.0,-999.0,91,0.00,,,0.00,MetarLogicWeatherSta,2013-03-17 09:54:00,
2013-03-17 05:59:00,20.9,18.9,30.05,SSW,202,0.0,-999.0,92,0.00,,,0.00,MetarLogicWeatherSta,2013-03-17 09:59:00,
2013-03-17 06:04:00,21.2,19.3,30.05,South,180,0.0,-999.0,92,0.00,,,0.00,MetarLogicWeatherSta,2013-03-17 10:04:00,
2013-03-17 06:09:00,21.6,19.7,30.05,South,180,0.0,-999.0,92,0.00,,,0.00,MetarLogicWeatherSta,2013-03-17 10:09:00,
2013-03-17 06:14:00,21.3,18.9,30.05,South,180,0.0,-999.0,90,0.00,,,0.00,MetarLogicWeatherSta,2013-03-17 10:14:00,
2013-03-17 06:19:00,21.2,19.3,30.05,SSW,193,0.0,0.0,92,0.00,,,0.00,MetarLogicWeatherSta,2013-03-17 10:19:00,
2013-03-17 06:24:00,21.2,19.2,30.05,South,187,0.0,0.0,91,0.00,,,0.00,MetarLogicWeatherSta,2013-03-17 10:24:00,
2013-03-17 06:29:00,20.9,18.8,30.05,SSE,157,0.0,-999.0,91,0.00,,,0.00,MetarLogicWeatherSta,2013-03-17 10:29:00,
2013-03-17 06:34:00,20.6,18.5,30.06,SSE,157,0.0,-999.0,91,0.00,,,0.00,MetarLogicWeatherSta,2013-03-17 10:34:00,
2013-03-17 06:39:00,20.6,18.5,30.06,SSE,157,0.0,-999.0,91,0.00,,,0.00,MetarLogicWeatherSta,2013-03-17 10:39:00,
2013-03-17 06:44:00,20.2,18.0,30.06,SSE,157,0.0,-999.0,90,0.00,,,0.00,MetarLogicWeatherSta,2013-03-17 10:44:00,
2013-03-17 06:49:00,19.7,17.3,30.06,SSE,157,0.0,-999.0,90,0.00,,,0.00,MetarLogicWeatherSta,2013-03-17 10:49:00,
2013-03-17 06:54:00,19.3,17.2,30.07,SSE,157,0.0,-999.0,91,0.00,,,0.00,MetarLogicWeatherSta,2013-03-17 10:54:00,
2013-03-17 06:59:00,19.1,16.8,30.07,SSE,157,0.0,-999.0,90,0.00,,,0.00,MetarLogicWeatherSta,2013-03-17 10:59:00,
2013-03-17 07:04:00,18.7,16.5,30.07,SSE,157,0.0,-999.0,90,0.00,,,0.00,MetarLogicWeatherSta,2013-03-17 11:04:00,
2013-03-17 07:09:00,18.6,16.4,30.07,SSE,157,0.0,-999.0,91,0.00,,,0.00,MetarLogicWeatherSta,2013-03-17 11:09:00,
2013-03-17 07:14:00,18.6,16.3,30.07,SSE,157,0.0,-999.0,90,0.00,,,0.00,MetarLogicWeatherSta,2013-03-17 11:14:00,
2013-03-17 07:19:00,18.4,16.2,30.07,SSE,157,0.0,-999.0,91,0.00,,,0.00,MetarLogicWeatherSta,2013-03-17 11:19:00,
2013-03-17 07:24:00,18.0,15.8,30.07,SSE,157,0.0,-999.0,90,0.00,,,0.00,MetarLogicWeatherSta,2013-03-17 11:24:00,
2013-03-17 07:29:00,18.1,15.8,30.07,SSE,157,0.0,-999.0,90,0.00,,,0.00,MetarLogicWeatherSta,2013-03-17 11:29:00,
2013-03-17 07:34:00,18.1,15.9,30.08,SSE,157,0.0,-999.0,91,0.00,,,0.00,MetarLogicWeatherSta,2013-03-17 11:34:00,
2013-03-17 07:39:00,18.2,16.2,30.09,SSE,157,0.0,-999.0,91,0.00,,,0.00,MetarLogicWeatherSta,2013-03-17 11:39:00,
2013-03-17 07:44:00,18.3,16.2,30.09,SSE,157,0.0,-999.0,91,0.00,,,0.00,MetarLogicWeatherSta,2013-03-17 11:44:00,
2013-03-17 07:49:00,18.8,16.8,30.09,SSE,157,0.0,-999.0,91,0.00,,,0.00,MetarLogicWeatherSta,2013-03-17 11:49:00,
2013-03-17 07:54:00,19.0,17.0,30.09,SSE,157,0.0,-999.0,92,0.00,,,0.00,MetarLogicWeatherSta,2013-03-17 11:54:00,
2013-03-17 08:00:00,19.3,17.4,30.09,South,180,0.0,0.0,92,0.00,,,0.00,MetarLogicWeatherSta,2013-03-17 12:00:00,
2013-03-17 08:05:00,19.8,17.9,30.09,SSE,157,0.0,-999.0,92,0.00,,,0.00,MetarLogicWeatherSta,2013-03-17 12:05:00,
2013-03-17 08:10:00,20.2,18.3,30.10,SSE,157,0.0,-999.0,92,0.00,,,0.00,MetarLogicWeatherSta,2013-03-17 12:10:00,
2013-03-17 08:15:00,20.5,18.5,30.10,South,180,0.0,-999.0,92,0.00,,,0.00,MetarLogicWeatherSta,2013-03-17 12:15:00,
2013-03-17 08:21:00,20.6,18.7,30.10,SSE,157,0.0,-999.0,92,0.00,,,0.00,MetarLogicWeatherSta,2013-03-17 12:21:00,
2013-03-17 08:26:00,21.3,19.4,30.10,South,180,0.0,-999.0,92,0.00,,,0.00,MetarLogicWeatherSta,2013-03-17 12:26:00,
2013-03-17 08:31:00,21.5,19.7,30.11,South,180,0.0,-999.0,92,0.00,,,0.00,MetarLogicWeatherSta,2013-03-17 12:31:00,
2013-03-17 08:36:00,21.9,20.1,30.11,South,180,0.0,-999.0,92,0.00,,,0.00,MetarLogicWeatherSta,2013-03-17 12:36:00,
2013-03-17 08:41:00,22.0,20.1,30.11,South,180,0.0,-999.0,92,0.00,,,0.00,MetarLogicWeatherSta,2013-03-17 12:41:00,
2013-03-17 08:46:00,22.4,20.5,30.11,South,180,0.0,-999.0,92,0.00,,,0.00,MetarLogicWeatherSta,2013-03-17 12:46:00,
2013-03-17 08:51:00,22.5,20.4,30.11,South,180,0.0,-999.0,91,0.00,,,0.00,MetarLogicWeatherSta,2013-03-17 12:51:00,
2013-03-17 08:56:00,22.7,20.7,30.12,South,180,0.0,-999.0,92,0.00,,,0.00,MetarLogicWeatherSta,2013-03-17 12:56:00,
2013-03-17 09:02:00,22.8,20.9,30.12,South,180,0.0,-999.0,92,0.00,,,0.00,MetarLogicWeatherSta,2013-03-17 13:02:00,
2013-03-17 09:07:00,23.2,21.1,30.12,South,180,0.0,-999.0,91,0.00,,,0.00,MetarLogicWeatherSta,2013-03-17 13:07:00,
2013-03-17 09:12:00,23.5,21.2,30.13,South,180,0.0,-999.0,90,0.00,,,0.00,MetarLogicWeatherSta,2013-03-17 13:12:00,
2013-03-17 09:17:00,23.4,20.9,30.13,South,180,0.0,-999.0,90,0.00,,,0.00,MetarLogicWeatherSta,2013-03-17 13:17:00,
2013-03-17 09:22:00,23.7,21.1,30.13,SSW,202,0.0,-999.0,89,0.00,,,0.00,MetarLogicWeatherSta,2013-03-17 13:22:00,
2013-03-17 09:27:00,24.0,21.2,30.13,SSE,157,0.0,-999.0,89,0.00,,,0.00,MetarLogicWeatherSta,2013-03-17 13:27:00,
2013-03-17 09:32:00,24.1,21.3,30.14,South,180,0.0,-999.0,88,0.00,,,0.00,MetarLogicWeatherSta,2013-03-17 13:32:00,
2013-03-17 09:37:00,24.3,21.5,30.14,South,180,0.0,-999.0,88,0.00,,,0.00,MetarLogicWeatherSta,2013-03-17 13:37:00,
2013-03-17 09:42:00,24.5,21.6,30.14,South,180,0.0,-999.0,88,0.00,,,0.00,MetarLogicWeatherSta,2013-03-17 13:42:00,
2013-03-17 09:47:00,24.6,21.1,30.14,SSW,202,0.0,-999.0,86,0.00,,,0.00,MetarLogicWeatherSta,2013-03-17 13:47:00,
2013-03-17 09:52:00,24.6,21.0,30.14,SSW,202,0.0,-999.0,86,0.00,,,0.00,MetarLogicWeatherSta,2013-03-17 13:52:00,
2013-03-17 09:57:00,25.0,21.5,30.15,SSW,202,0.0,-999.0,86,0.00,,,0.00,MetarLogicWeatherSta,2013-03-17 13:57:00,
2013-03-17 10:02:00,24.7,21.0,30.15,South,180,0.0,-999.0,85,0.00,,,0.00,MetarLogicWeatherSta,2013-03-17 14:02:00,
2013-03-17 10:07:00,25.1,21.5,30.15,SSW,202,0.0,-999.0,85,0.00,,,0.00,MetarLogicWeatherSta,2013-03-17 14:07:00,
2013-03-17 10:12:00,25.3,21.5,30.15,SSE,157,0.0,-999.0,85,0.00,,,0.00,MetarLogicWeatherSta,2013-03-17 14:12:00,
2013-03-17 10:20:00,25.3,21.7,30.15,SSE,157,0.0,-999.0,86,0.00,,,0.00,MetarLogicWeatherSta,2013-03-17 14:20:00,
2013-03-17 10:25:00,26.1,22.0,30.15,SSW,202,1.0,-999.0,84,0.00,,,0.00,MetarLogicWeatherSta,2013-03-17 14:25:00,
2013-03-17 10:30:00,25.9,21.6,30.15,SSE,157,0.0,-999.0,83,0.00,,,0.00,MetarLogicWeatherSta,2013-03-17 14:30:00,
2013-03-17 10:35:00,25.8,21.6,30.15,SW,225,3.0,-999.0,83,0.00,,,0.00,MetarLogicWeatherSta,2013-03-17 14:35:00,
2013-03-17 10:40:00,25.7,21.9,30.15,South,180,0.0,-999.0,85,0.00,,,0.00,MetarLogicWeatherSta,2013-03-17 14:40:00,
2013-03-17 10:45:00,26.3,22.4,30.15,SSW,202,0.0,-999.0,85,0.00,,,0.00,MetarLogicWeatherSta,2013-03-17 14:45:00,
2013-03-17 10:50:00,27.1,23.5,30.15,SW,225,3.0,-999.0,86,0.00,,,0.00,MetarLogicWeatherSta,2013-03-17 14:50:00,
2013-03-17 10:55:00,27.7,23.4,30.15,South,180,0.0,-999.0,83,0.00,,,0.00,MetarLogicWeatherSta,2013-03-17 14:55:00,
2013-03-17 11:00:00,27.6,22.5,30.16,SW,225,3.0,-999.0,80,0.00,,,0.00,MetarLogicWeatherSta,2013-03-17 15:00:00,
2013-03-17 11:05:00,26.8,21.8,30.16,SSW,202,1.0,-999.0,81,0.00,,,0.00,MetarLogicWeatherSta,2013-03-17 15:05:00,
2013-03-17 11:10:00,27.3,22.7,30.16,South,180,1.0,-999.0,82,0.00,,,0.00,MetarLogicWeatherSta,2013-03-17 15:10:00,
2013-03-17 11:15:00,27.5,21.9,30.16,SSW,202,0.0,-999.0,79,0.00,,,0.00,MetarLogicWeatherSta,2013-03-17 15:15:00,
2013-03-17 11:22:00,27.4,21.3,30.16,West,271,2.0,6.0,77,0.00,,,0.00,MetarLogicWeatherSta,2013-03-17 15:22:00,
2013-03-17 11:27:00,26.9,20.5,30.16,SSE,157,0.0,-999.0,76,0.00,,,0.00,MetarLogicWeatherSta,2013-03-17 15:27:00,
2013-03-17 11:32:00,27.2,21.4,30.17,WSW,247,3.0,-999.0,78,0.00,,,0.00,MetarLogicWeatherSta,2013-03-17 15:32:00,
2013-03-17 11:37:00,26.9,22.0,30.17,West,270,1.0,-999.0,81,0.00,,,0.00,MetarLogicWeatherSta,2013-03-17 15:37:00,
2013-03-17 11:42:00,26.9,22.5,30.17,SSW,202,0.0,-999.0,83,0.00,,,0.00,MetarLogicWeatherSta,2013-03-17 15:42:00,
2013-03-17 11:47:00,26.9,21.8,30.17,SW,225,3.0,-999.0,80,0.00,,,0.00,MetarLogicWeatherSta,2013-03-17 15:47:00,
2013-03-17 11:52:00,27.2,21.6,30.17,SW,225,4.0,-999.0,79,0.00,,,0.00,MetarLogicWeatherSta,2013-03-17 15:52:00,
2013-03-17 11:57:00,27.3,20.9,30.17,SSW,202,0.0,-999.0,76,0.00,,,0.00,MetarLogicWeatherSta,2013-03-17 15:57:00,
2013-03-17 12:02:00,26.9,21.2,30.18,SW,225,0.0,-999.0,78,0.00,,,0.00,MetarLogicWeatherSta,2013-03-17 16:02:00,
2013-03-17 12:07:00,26.7,21.3,30.19,SSW,202,0.0,-999.0,80,0.00,,,0.00,MetarLogicWeatherSta,2013-03-17 16:07:00,
2013-03-17 12:12:00,26.1,21.8,30.19,SSW,202,3.0,-999.0,83,0.00,,,0.00,MetarLogicWeatherSta,2013-03-17 16:12:00,
2013-03-17 12:17:00,26.1,22.4,30.19,WSW,247,4.0,-999.0,85,0.00,,,0.00,MetarLogicWeatherSta,2013-03-17 16:17:00,
2013-03-17 12:22:00,26.7,22.4,30.19,WNW,292,0.0,-999.0,83,0.00,,,0.00,MetarLogicWeatherSta,2013-03-17 16:22:00,
2013-03-17 12:27:00,26.4,21.7,30.19,West,270,6.0,-999.0,82,0.00,,,0.00,MetarLogicWeatherSta,2013-03-17 16:27:00,
2013-03-17 12:32:00,25.8,20.9,30.20,West,270,3.0,-999.0,81,0.00,,,0.00,MetarLogicWeatherSta,2013-03-17 16:32:00,
2013-03-17 12:37:00,25.3,20.8,30.20,West,270,4.0,-999.0,82,0.00,,,0.00,MetarLogicWeatherSta,2013-03-17 16:37:00,
2013-03-17 12:42:00,24.7,20.9,30.20,West,270,3.0,-999.0,85,0.00,,,0.00,MetarLogicWeatherSta,2013-03-17 16:42:00,
2013-03-17 12:47:00,24.8,21.1,30.21,South,180,0.0,-999.0,85,0.00,,,0.00,MetarLogicWeatherSta,2013-03-17 16:47:00,
2013-03-17 12:52:00,24.9,21.3,30.21,SW,225,3.0,-999.0,86,0.00,,,0.00,MetarLogicWeatherSta,2013-03-17 16:52:00,
2013-03-17 12:57:00,25.1,21.7,30.20,SW,225,0.0,-999.0,86,0.00,,,0.00,MetarLogicWeatherSta,2013-03-17 16:57:00,
2013-03-17 13:02:00,25.5,21.7,30.20,ESE,112,0.0,-999.0,85,0.00,,,0.00,MetarLogicWeatherSta,2013-03-17 17:02:00,
2013-03-17 13:07:00,25.9,21.2,30.20,SW,225,0.0,-999.0,82,0.00,,,0.00,MetarLogicWeatherSta,2013-03-17 17:07:00,
2013-03-17 13:12:00,26.1,21.1,30.19,SE,135,0.0,-999.0,81,0.00,,,0.00,MetarLogicWeatherSta,2013-03-17 17:12:00,
2013-03-17 13:17:00,26.7,21.3,30.19,NNE,22,1.0,-999.0,79,0.00,,,0.00,MetarLogicWeatherSta,2013-03-17 17:17:00,
2013-03-17 13:22:00,27.1,21.4,30.20,NNE,22,1.0,-999.0,78,0.00,,,0.00,MetarLogicWeatherSta,2013-03-17 17:22:00,
2013-03-17 13:27:00,28.2,21.6,30.20,SSE,157,0.0,-999.0,76,0.00,,,0.00,MetarLogicWeatherSta,2013-03-17 17:27:00,
2013-03-17 13:32:00,29.2,22.5,30.19,SSE,157,0.0,-999.0,75,0.00,,,0.00,MetarLogicWeatherSta,2013-03-17 17:32:00,
2013-03-17 13:40:00,29.6,22.2,30.20,West,270,4.0,-999.0,73,0.00,,,0.00,MetarLogicWeatherSta,2013-03-17 17:40:00,
2013-03-17 13:45:00,27.6,20.2,30.21,West,270,4.0,-999.0,73,0.00,,,0.00,MetarLogicWeatherSta,2013-03-17 17:45:00,
2013-03-17 13:50:00,26.5,21.1,30.21,WSW,247,3.0,-999.0,80,0.00,,,0.00,MetarLogicWeatherSta,2013-03-17 17:50:00,
2013-03-17 13:55:00,25.6,21.0,30.21,SW,225,3.0,-999.0,82,0.00,,,0.00,MetarLogicWeatherSta,2013-03-17 17:55:00,
2013-03-17 14:00:00,25.7,21.5,30.20,SW,225,1.0,-999.0,83,0.00,,,0.00,MetarLogicWeatherSta,2013-03-17 18:00:00,
2013-03-17 14:05:00,25.6,21.7,30.20,SW,225,1.0,-999.0,84,0.00,,,0.00,MetarLogicWeatherSta,2013-03-17 18:05:00,
2013-03-17 14:10:00,26.2,22.6,30.21,SSW,202,4.0,-999.0,86,0.00,,,0.00,MetarLogicWeatherSta,2013-03-17 18:10:00,
2013-03-17 14:15:00,27.1,23.1,30.20,SSW,202,3.0,-999.0,84,0.00,,,0.00,MetarLogicWeatherSta,2013-03-17 18:15:00,
2013-03-17 14:20:00,27.8,22.8,30.20,SSW,202,0.0,-999.0,81,0.00,,,0.00,MetarLogicWeatherSta,2013-03-17 18:20:00,
2013-03-17 14:25:00,28.3,23.2,30.20,NW,315,0.0,-999.0,80,0.00,,,0.00,MetarLogicWeatherSta,2013-03-17 18:25:00,
2013-03-17 14:30:00,28.1,21.1,30.20,WSW,247,4.0,-999.0,74,0.00,,,0.00,MetarLogicWeatherSta,2013-03-17 18:30:00,
2013-03-17 14:35:00,27.2,20.7,30.20,West,270,1.0,-999.0,76,0.00,,,0.00,MetarLogicWeatherSta,2013-03-17 18:35:00,
2013-03-17 14:40:00,26.7,20.0,30.20,WSW,247,3.0,-999.0,75,0.00,,,0.00,MetarLogicWeatherSta,2013-03-17 18:40:00,
2013-03-17 14:45:00,26.3,19.9,30.20,East,90,0.0,-999.0,76,0.00,,,0.00,MetarLogicWeatherSta,2013-03-17 18:45:00,
2013-03-17 14:50:00,26.6,20.1,30.20,SW,225,3.0,-999.0,76,0.00,,,0.00,MetarLogicWeatherSta,2013-03-17 18:50:00,
2013-03-17 14:55:00,26.8,19.8,30.20,SSE,157,0.0,-999.0,74,0.00,,,0.00,MetarLogicWeatherSta,2013-03-17 18:55:00,
2013-03-17 15:00:00,27.2,20.1,30.20,WSW,247,7.0,-999.0,74,0.00,,,0.00,MetarLogicWeatherSta,2013-03-17 19:00:00,
2013-03-17 15:05:00,27.4,19.6,30.20,SSW,202,0.0,-999.0,72,0.00,,,0.00,MetarLogicWeatherSta,2013-03-17 19:05:00,
2013-03-17 15:10:00,27.5,19.7,30.20,SSW,202,1.0,-999.0,72,0.00,,,0.00,MetarLogicWeatherSta,2013-03-17 19:10:00,
2013-03-17 15:15:00,27.7,18.9,30.20,WSW,247,3.0,-999.0,69,0.00,,,0.00,MetarLogicWeatherSta,2013-03-17 19:15:00,
2013-03-17 15:20:00,27.8,18.6,30.20,South,180,1.0,-999.0,68,0.00,,,0.00,MetarLogicWeatherSta,2013-03-17 19:20:00,
2013-03-17 15:25:00,27.8,18.7,30.20,South,180,0.0,-999.0,68,0.00,,,0.00,MetarLogicWeatherSta,2013-03-17 19:25:00,
2013-03-17 15:30:00,28.3,18.8,30.21,SW,225,0.0,-999.0,67,0.00,,,0.00,MetarLogicWeatherSta,2013-03-17 19:30:00,
2013-03-17 15:35:00,28.6,19.1,30.20,NE,45,0.0,-999.0,67,0.00,,,0.00,MetarLogicWeatherSta,2013-03-17 19:35:00,
2013-03-17 15:40:00,28.3,17.6,30.20,SSW,202,1.0,-999.0,63,0.00,,,0.00,MetarLogicWeatherSta,2013-03-17 19:40:00,
2013-03-17 15:45:00,28.0,17.3,30.21,SSW,202,1.0,-999.0,64,0.00,,,0.00,MetarLogicWeatherSta,2013-03-17 19:45:00,
2013-03-17 15:50:00,28.5,18.5,30.21,West,270,3.0,-999.0,66,0.00,,,0.00,MetarLogicWeatherSta,2013-03-17 19:50:00,
2013-03-17 15:55:00,28.7,17.5,30.21,West,270,3.0,-999.0,62,0.00,,,0.00,MetarLogicWeatherSta,2013-03-17 19:55:00,
2013-03-17 16:00:00,28.9,18.0,30.21,SW,225,4.0,-999.0,63,0.00,,,0.00,MetarLogicWeatherSta,2013-03-17 20:00:00,
2013-03-17 16:05:00,28.7,17.2,30.21,WNW,292,6.0,-999.0,61,0.00,,,0.00,MetarLogicWeatherSta,2013-03-17 20:05:00,
2013-03-17 16:13:00,28.8,17.3,30.21,West,270,4.0,-999.0,61,0.00,,,0.00,MetarLogicWeatherSta,2013-03-17 20:13:00,
2013-03-17 16:18:00,28.5,16.4,30.21,SW,225,1.0,-999.0,60,0.00,,,0.00,MetarLogicWeatherSta,2013-03-17 20:18:00,
2013-03-17 16:23:00,28.3,16.7,30.21,SW,225,1.0,-999.0,61,0.00,,,0.00,MetarLogicWeatherSta,2013-03-17 20:23:00,
2013-03-17 16:28:00,28.4,16.5,30.21,SW,225,3.0,-999.0,60,0.00,,,0.00,MetarLogicWeatherSta,2013-03-17 20:28:00,
2013-03-17 16:33:00,28.6,16.5,30.21,West,270,4.0,-999.0,60,0.00,,,0.00,MetarLogicWeatherSta,2013-03-17 20:33:00,
2013-03-17 16:38:00,28.4,15.9,30.22,South,180,0.0,-999.0,59,0.00,,,0.00,MetarLogicWeatherSta,2013-03-17 20:38:00,
2013-03-17 16:43:00,28.3,16.4,30.22,SSW,202,0.0,-999.0,60,0.00,,,0.00,MetarLogicWeatherSta,2013-03-17 20:43:00,
2013-03-17 16:48:00,28.5,16.1,30.22,SW,225,3.0,-999.0,59,0.00,,,0.00,MetarLogicWeatherSta,2013-03-17 20:48:00,
2013-03-17 16:53:00,28.5,15.3,30.22,SW,225,4.0,-999.0,57,0.00,,,0.00,MetarLogicWeatherSta,2013-03-17 20:53:00,
2013-03-17 16:58:00,28.5,16.0,30.22,South,180,1.0,-999.0,59,0.00,,,0.00,MetarLogicWeatherSta,2013-03-17 20:58:00,
2013-03-17 17:03:00,28.5,16.0,30.22,SSW,202,1.0,-999.0,59,0.00,,,0.00,MetarLogicWeatherSta,2013-03-17 21:03:00,
2013-03-17 17:08:00,28.5,15.2,30.22,SSW,202,0.0,-999.0,57,0.00,,,0.00,MetarLogicWeatherSta,2013-03-17 21:08:00,
2013-03-17 17:13:00,28.5,15.2,30.22,West,270,3.0,-999.0,57,0.00,,,0.00,MetarLogicWeatherSta,2013-03-17 21:13:00,
2013-03-17 17:18:00,28.5,15.7,30.22,SW,225,6.0,-999.0,58,0.00,,,0.00,MetarLogicWeatherSta,2013-03-17 21:18:00,
2013-03-17 17:23:00,28.3,15.1,30.22,South,180,1.0,-999.0,57,0.00,,,0.00,MetarLogicWeatherSta,2013-03-17 21:23:00,
2013-03-17 17:28:00,28.0,15.0,30.23,SSW,202,1.0,-999.0,57,0.00,,,0.00,MetarLogicWeatherSta,2013-03-17 21:28:00,
2013-03-17 17:33:00,27.7,14.1,30.23,SSW,202,0.0,-999.0,56,0.00,,,0.00,MetarLogicWeatherSta,2013-03-17 21:33:00,
2013-03-17 17:38:00,27.4,14.0,30.23,SW,225,4.0,-999.0,56,0.00,,,0.00,MetarLogicWeatherSta,2013-03-17 21:38:00,
2013-03-17 17:43:00,27.0,14.0,30.22,SSW,202,1.0,-999.0,57,0.00,,,0.00,MetarLogicWeatherSta,2013-03-17 21:43:00,
2013-03-17 17:48:00,26.8,14.1,30.24,SSW,202,0.0,-999.0,58,0.00,,,0.00,MetarLogicWeatherSta,2013-03-17 21:48:00,
2013-03-17 17:53:00,26.8,14.3,30.24,WSW,247,0.0,-999.0,59,0.00,,,0.00,MetarLogicWeatherSta,2013-03-17 21:53:00,
2013-03-17 17:58:00,26.7,14.5,30.24,South,180,0.0,-999.0,59,0.00,,,0.00,MetarLogicWeatherSta,2013-03-17 21:58:00,
2013-03-17 18:03:00,26.8,14.1,30.24,West,270,3.0,-999.0,58,0.00,,,0.00,MetarLogicWeatherSta,2013-03-17 22:03:00,
2013-03-17 18:08:00,26.8,13.5,30.24,SE,135,0.0,-999.0,56,0.00,,,0.00,MetarLogicWeatherSta,2013-03-17 22:08:00,
2013-03-17 18:13:00,26.9,13.2,30.24,South,180,0.0,-999.0,55,0.00,,,0.00,MetarLogicWeatherSta,2013-03-17 22:13:00,
2013-03-17 18:19:00,26.9,13.4,30.24,SW,230,0.0,4.0,56,0.00,,,0.00,MetarLogicWeatherSta,2013-03-17 22:19:00,
2013-03-17 18:24:00,27.0,12.6,30.24,South,180,1.0,-999.0,54,0.00,,,0.00,MetarLogicWeatherSta,2013-03-17 22:24:00,
2013-03-17 18:29:00,26.7,13.1,30.25,WSW,247,1.0,-999.0,56,0.00,,,0.00,MetarLogicWeatherSta,2013-03-17 22:29:00,
2013-03-17 18:35:00,26.8,12.8,30.25,WSW,247,1.0,-999.0,55,0.00,,,0.00,MetarLogicWeatherSta,2013-03-17 22:35:00,
2013-03-17 18:40:00,26.3,12.4,30.26,South,180,0.0,-999.0,55,0.00,,,0.00,MetarLogicWeatherSta,2013-03-17 22:40:00,
2013-03-17 18:45:00,26.0,12.3,30.26,WSW,247,0.0,-999.0,55,0.00,,,0.00,MetarLogicWeatherSta,2013-03-17 22:45:00,
2013-03-17 18:50:00,25.8,12.0,30.26,SSW,202,0.0,-999.0,55,0.00,,,0.00,MetarLogicWeatherSta,2013-03-17 22:50:00,
2013-03-17 18:55:00,25.8,11.7,30.26,South,180,0.0,-999.0,55,0.00,,,0.00,MetarLogicWeatherSta,2013-03-17 22:55:00,
2013-03-17 19:00:00,25.4,11.4,30.26,SSW,202,0.0,-999.0,55,0.00,,,0.00,MetarLogicWeatherSta,2013-03-17 23:00:00,
2013-03-17 19:05:00,25.4,11.4,30.26,SSW,202,0.0,-999.0,55,0.00,,,0.00,MetarLogicWeatherSta,2013-03-17 23:05:00,
2013-03-17 19:10:00,24.9,11.0,30.26,WSW,247,3.0,-999.0,55,0.00,,,0.00,MetarLogicWeatherSta,2013-03-17 23:10:00,
2013-03-17 19:15:00,24.8,10.8,30.26,SSW,202,1.0,-999.0,55,0.00,,,0.00,MetarLogicWeatherSta,2013-03-17 23:15:00,
2013-03-17 19:20:00,24.6,10.7,30.26,South,180,0.0,-999.0,55,0.00,,,0.00,MetarLogicWeatherSta,2013-03-17 23:20:00,
2013-03-17 19:25:00,24.4,11.1,30.26,South,180,0.0,-999.0,56,0.00,,,0.00,MetarLogicWeatherSta,2013-03-17 23:25:00,
2013-03-17 19:30:00,24.4,10.9,30.26,South,180,0.0,-999.0,56,0.00,,,0.00,MetarLogicWeatherSta,2013-03-17 23:30:00,
2013-03-17 19:35:00,24.1,10.9,30.26,South,180,0.0,-999.0,56,0.00,,,0.00,MetarLogicWeatherSta,2013-03-17 23:35:00,
2013-03-17 19:40:00,23.8,11.2,30.27,South,180,0.0,-999.0,58,0.00,,,0.00,MetarLogicWeatherSta,2013-03-17 23:40:00,
2013-03-17 19:45:00,23.5,11.0,30.27,SSW,202,0.0,-999.0,58,0.00,,,0.00,MetarLogicWeatherSta,2013-03-17 23:45:00,
2013-03-17 19:50:00,23.1,10.8,30.28,South,180,0.0,-999.0,59,0.00,,,0.00,MetarLogicWeatherSta,2013-03-17 23:50:00,
2013-03-17 19:55:00,22.9,10.6,30.28,South,180,0.0,-999.0,58,0.00,,,0.00,MetarLogicWeatherSta,2013-03-17 23:55:00,
2013-03-17 20:00:00,22.9,10.6,30.28,SSW,202,1.0,-999.0,58,0.00,,,0.00,MetarLogicWeatherSta,2013-03-18 00:00:00,
2013-03-17 20:05:00,22.6,10.2,30.28,SW,225,1.0,-999.0,58,0.00,,,0.00,MetarLogicWeatherSta,2013-03-18 00:05:00,
2013-03-17 20:10:00,22.5,10.0,30.28,South,180,0.0,-999.0,58,0.00,,,0.00,MetarLogicWeatherSta,2013-03-18 00:10:00,
2013-03-17 20:15:00,22.3,9.8,30.28,SSW,202,0.0,-999.0,58,0.00,,,0.00,MetarLogicWeatherSta,2013-03-18 00:15:00,
2013-03-17 20:20:00,21.8,9.5,30.29,SSW,202,0.0,-999.0,59,0.00,,,0.00,MetarLogicWeatherSta,2013-03-18 00:20:00,
2013-03-17 20:25:00,21.8,9.5,30.29,SW,225,1.0,-999.0,58,0.00,,,0.00,MetarLogicWeatherSta,2013-03-18 00:25:00,
2013-03-17 20:30:00,21.8,9.5,30.29,South,180,0.0,-999.0,58,0.00,,,0.00,MetarLogicWeatherSta,2013-03-18 00:30:00,
2013-03-17 20:35:00,21.6,9.2,30.29,South,180,0.0,-999.0,58,0.00,,,0.00,MetarLogicWeatherSta,2013-03-18 00:35:00,
2013-03-17 20:40:00,21.2,8.6,30.29,South,180,0.0,-999.0,58,0.00,,,0.00,MetarLogicWeatherSta,2013-03-18 00:40:00,
2013-03-17 20:45:00,21.1,8.9,30.29,South,180,0.0,-999.0,58,0.00,,,0.00,MetarLogicWeatherSta,2013-03-18 00:45:00,
2013-03-17 20:50:00,20.9,8.8,30.29,SSE,157,0.0,-999.0,59,0.00,,,0.00,MetarLogicWeatherSta,2013-03-18 00:50:00,
2013-03-17 20:55:00,20.5,8.4,30.29,SSE,157,0.0,-999.0,59,0.00,,,0.00,MetarLogicWeatherSta,2013-03-18 00:55:00,
2013-03-17 21:00:00,20.4,8.6,30.30,SSE,157,0.0,-999.0,59,0.00,,,0.00,MetarLogicWeatherSta,2013-03-18 01:00:00,
2013-03-17 21:05:00,20.0,8.3,30.29,SSE,157,0.0,-999.0,60,0.00,,,0.00,MetarLogicWeatherSta,2013-03-18 01:05:00,
2013-03-17 21:10:00,19.7,8.2,30.29,SSE,157,0.0,-999.0,60,0.00,,,0.00,MetarLogicWeatherSta,2013-03-18 01:10:00,
2013-03-17 21:15:00,19.6,8.4,30.29,SSE,157,0.0,-999.0,61,0.00,,,0.00,MetarLogicWeatherSta,2013-03-18 01:15:00,
2013-03-17 21:20:00,19.4,8.2,30.29,SSE,157,0.0,-999.0,61,0.00,,,0.00,MetarLogicWeatherSta,2013-03-18 01:20:00,
2013-03-17 21:26:00,19.3,8.3,30.29,SSE,157,0.0,-999.0,62,0.00,,,0.00,MetarLogicWeatherSta,2013-03-18 01:26:00,
2013-03-17 21:33:00,19.0,8.1,30.29,SSE,157,0.0,-999.0,62,0.00,,,0.00,MetarLogicWeatherSta,2013-03-18 01:33:00,
2013-03-17 21:38:00,18.5,8.1,30.29,SSE,157,0.0,-999.0,63,0.00,,,0.00,MetarLogicWeatherSta,2013-03-18 01:38:00,
2013-03-17 21:43:00,17.9,7.7,30.30,SSE,157,0.0,-999.0,63,0.00,,,0.00,MetarLogicWeatherSta,2013-03-18 01:43:00,
2013-03-17 21:48:00,17.7,7.7,30.30,SSE,157,0.0,-999.0,64,0.00,,,0.00,MetarLogicWeatherSta,2013-03-18 01:48:00,
2013-03-17 21:53:00,17.0,7.6,30.30,SSE,157,0.0,-999.0,66,0.00,,,0.00,MetarLogicWeatherSta,2013-03-18 01:53:00,
2013-03-17 21:58:00,16.9,7.7,30.30,SSE,157,0.0,-999.0,67,0.00,,,0.00,MetarLogicWeatherSta,2013-03-18 01:58:00,
2013-03-17 22:03:00,16.5,7.7,30.30,SSE,157,0.0,-999.0,68,0.00,,,0.00,MetarLogicWeatherSta,2013-03-18 02:03:00,
2013-03-17 22:08:00,16.5,7.8,30.30,SSE,157,0.0,-999.0,68,0.00,,,0.00,MetarLogicWeatherSta,2013-03-18 02:08:00,
2013-03-17 22:13:00,16.1,7.5,30.30,SSE,157,0.0,-999.0,68,0.00,,,0.00,MetarLogicWeatherSta,2013-03-18 02:13:00,
2013-03-17 22:18:00,16.1,8.3,30.30,SSE,157,0.0,-999.0,71,0.00,,,0.00,MetarLogicWeatherSta,2013-03-18 02:18:00,
2013-03-17 22:23:00,16.4,8.9,30.31,SSE,157,0.0,-999.0,72,0.00,,,0.00,MetarLogicWeatherSta,2013-03-18 02:23:00,
2013-03-17 22:28:00,16.5,8.6,30.31,SSE,157,0.0,-999.0,70,0.00,,,0.00,MetarLogicWeatherSta,2013-03-18 02:28:00,
2013-03-17 22:33:00,16.6,8.6,30.31,SSE,157,0.0,-999.0,70,0.00,,,0.00,MetarLogicWeatherSta,2013-03-18 02:33:00,
2013-03-17 22:38:00,16.3,8.3,30.32,SSE,157,0.0,-999.0,70,0.00,,,0.00,MetarLogicWeatherSta,2013-03-18 02:38:00,
2013-03-17 22:43:00,16.1,8.4,30.31,SSE,157,0.0,-999.0,71,0.00,,,0.00,MetarLogicWeatherSta,2013-03-18 02:43:00,
2013-03-17 22:48:00,16.1,8.2,30.31,SSE,157,0.0,-999.0,70,0.00,,,0.00,MetarLogicWeatherSta,2013-03-18 02:48:00,
2013-03-17 22:53:00,15.4,7.7,30.31,SSE,157,0.0,-999.0,71,0.00,,,0.00,MetarLogicWeatherSta,2013-03-18 02:53:00,
2013-03-17 22:58:00,15.3,8.0,30.30,SSE,157,0.0,-999.0,72,0.00,,,0.00,MetarLogicWeatherSta,2013-03-18 02:58:00,
2013-03-17 23:03:00,15.1,8.2,30.31,SE,135,0.0,-999.0,73,0.00,,,0.00,MetarLogicWeatherSta,2013-03-18 03:03:00,
2013-03-17 23:08:00,15.1,8.6,30.31,SE,135,0.0,-999.0,75,0.00,,,0.00,MetarLogicWeatherSta,2013-03-18 03:08:00,
2013-03-17 23:13:00,14.9,8.4,30.31,SE,135,0.0,-999.0,75,0.00,,,0.00,MetarLogicWeatherSta,2013-03-18 03:13:00,
2013-03-17 23:18:00,14.9,8.4,30.31,SSE,157,0.0,-999.0,75,0.00,,,0.00,MetarLogicWeatherSta,2013-03-18 03:18:00,
2013-03-17 23:23:00,14.8,8.4,30.32,SSE,157,0.0,-999.0,75,0.00,,,0.00,MetarLogicWeatherSta,2013-03-18 03:23:00,
2013-03-17 23:28:00,14.6,8.1,30.30,SSE,157,0.0,-999.0,75,0.00,,,0.00,MetarLogicWeatherSta,2013-03-18 03:28:00,
2013-03-17 23:33:00,14.5,7.8,30.32,SSE,157,0.0,-999.0,74,0.00,,,0.00,MetarLogicWeatherSta,2013-03-18 03:33:00,
2013-03-17 23:38:00,14.4,8.4,30.32,SSE,157,0.0,-999.0,76,0.00,,,0.00,MetarLogicWeatherSta,2013-03-18 03:38:00,
2013-03-17 23:43:00,14.4,8.2,30.32,SSE,157,0.0,-999.0,76,0.00,,,0.00,MetarLogicWeatherSta,2013-03-18 03:43:00,
2013-03-17 23:48:00,14.2,8.1,30.32,SSE,157,0.0,-999.0,76,0.00,,,0.00,MetarLogicWeatherSta,2013-03-18 03:48:00,
2013-03-17 23:53:00,13.9,7.9,30.32,SSE,157,0.0,-999.0,76,0.00,,,0.00,MetarLogicWeatherSta,2013-03-18 03:53:00,
2013-03-17 23:58:00,13.8,7.9,30.31,SE,135,0.0,-999.0,76,0.00,,,0.00,MetarLogicWeatherSta,2013-03-18 03:58:00,